Time;durP1;ratioP1;P1;durP2;ratioP2;P2;SDS_P1;SDS_P2;PMS_P1;PMS_P2;Temp;Humidity;BMP_temperature;BMP_pressure;BME280_temperature;BME280_humidity;BME280_pressure;Samples;Min_cycle;Max_cycle;Signal;HPM_P1;HPM_P2
2022/08/30 00:01:50;;;;;;;9.00;6.40;;;;;;;;;;16888293;28;20228;-87
2022/08/30 00:10:11;;;;;;;11.47;7.13;;;;;;;;;;16885977;29;20180;-87
2022/08/30 00:18:33;;;;;;;9.83;6.10;;;;;;;;;;16886538;29;20201;-87
2022/08/30 00:26:53;;;;;;;8.77;6.63;;;;;;;;;;16886278;29;20185;-87
2022/08/30 00:35:14;;;;;;;8.97;6.47;;;;;;;;;;16884948;29;20209;-87
2022/08/30 00:43:35;;;;;;;7.40;6.47;;;;;;;;;;16884532;28;20201;-87
2022/08/30 00:51:56;;;;;;;9.57;6.80;;;;;;;;;;16891181;29;20228;-87
2022/08/30 01:00:16;;;;;;;7.83;6.53;;;;;;;;;;16897438;28;20237;-87
2022/08/30 01:08:37;;;;;;;9.60;6.80;;;;;;;;;;16894925;28;20174;-88
2022/08/30 01:17:00;;;;;;;9.70;6.83;;;;;;;;;;16896749;29;20213;-87
2022/08/30 01:25:26;;;;;;;9.43;6.30;;;;;;;;;;16895055;29;20235;-88
2022/08/30 01:33:46;;;;;;;9.73;6.73;;;;;;;;;;16895836;29;20245;-87
2022/08/30 01:42:07;;;;;;;9.53;7.33;;;;;;;;;;16893353;29;20276;-87
2022/08/30 01:50:27;;;;;;;10.60;7.27;;;;;;;;;;16892751;28;20193;-87
2022/08/30 01:58:48;;;;;;;9.67;7.37;;;;;;;;;;16893289;28;20241;-87
2022/08/30 02:07:09;;;;;;;10.87;6.93;;;;;;;;;;16893024;29;20632;-87
2022/08/30 02:15:29;;;;;;;7.73;6.70;;;;;;;;;;16891282;28;20219;-87
2022/08/30 02:23:50;;;;;;;9.47;7.60;;;;;;;;;;16891221;29;20201;-87
2022/08/30 02:32:10;;;;;;;8.27;7.43;;;;;;;;;;16891816;29;20204;-87
2022/08/30 02:40:31;;;;;;;12.70;7.67;;;;;;;;;;16892282;29;20185;-88
2022/08/30 02:48:51;;;;;;;10.37;7.50;;;;;;;;;;16890932;29;20688;-87
2022/08/30 02:57:12;;;;;;;8.40;7.50;;;;;;;;;;16891997;28;20263;-87
2022/08/30 03:05:33;;;;;;;9.03;8.10;;;;;;;;;;16890142;28;20182;-87
2022/08/30 03:13:53;;;;;;;9.30;7.33;;;;;;;;;;16889815;29;20217;-87
2022/08/30 03:22:13;;;;;;;10.80;8.00;;;;;;;;;;16889270;29;20268;-87
2022/08/30 03:30:34;;;;;;;9.73;7.83;;;;;;;;;;16888766;29;20181;-87
2022/08/30 03:38:54;;;;;;;9.80;8.43;;;;;;;;;;16888307;28;20323;-87
2022/08/30 03:47:14;;;;;;;9.27;8.37;;;;;;;;;;16888260;28;20555;-87
2022/08/30 03:55:35;;;;;;;10.97;8.13;;;;;;;;;;16887876;28;20276;-87
2022/08/30 04:03:55;;;;;;;10.17;7.93;;;;;;;;;;16886234;29;20268;-87
2022/08/30 04:12:15;;;;;;;12.37;9.10;;;;;;;;;;16886775;29;20205;-87
2022/08/30 04:20:36;;;;;;;10.73;8.30;;;;;;;;;;16888440;28;20621;-87
2022/08/30 04:28:58;;;;;;;11.83;8.53;;;;;;;;;;16885247;29;20186;-87
2022/08/30 04:37:18;;;;;;;11.70;8.53;;;;;;;;;;16885034;28;20259;-87
2022/08/30 04:45:39;;;;;;;11.93;8.43;;;;;;;;;;16885460;28;20213;-87
2022/08/30 04:53:59;;;;;;;11.80;9.47;;;;;;;;;;16885221;29;20268;-87
2022/08/30 05:02:20;;;;;;;10.90;9.50;;;;;;;;;;16883946;29;20720;-87
2022/08/30 05:10:42;;;;;;;13.03;10.17;;;;;;;;;;16884653;29;20188;-87
2022/08/30 05:19:02;;;;;;;11.40;9.23;;;;;;;;;;16884400;29;20233;-88
2022/08/30 05:27:23;;;;;;;9.57;8.60;;;;;;;;;;16882973;28;20177;-88
2022/08/30 05:35:43;;;;;;;10.32;9.30;;;;;;;;;;16885363;28;20296;-88
2022/08/30 05:44:05;;;;;;;11.13;8.45;;;;;;;;;;16893143;29;20216;-87
2022/08/30 05:52:25;;;;;;;9.30;8.35;;;;;;;;;;16894666;29;20208;-87
2022/08/30 06:00:45;;;;;;;9.73;7.93;;;;;;;;;;16893741;28;20233;-87
2022/08/30 06:09:07;;;;;;;8.48;6.95;;;;;;;;;;16891980;29;20208;-87
2022/08/30 06:17:27;;;;;;;8.40;7.53;;;;;;;;;;16891945;29;20213;-87
2022/08/30 06:25:47;;;;;;;9.13;8.23;;;;;;;;;;16892101;29;20204;-88
2022/08/30 06:34:08;;;;;;;11.13;9.30;;;;;;;;;;16891666;29;20205;-88
2022/08/30 06:42:30;;;;;;;10.90;9.77;;;;;;;;;;16891247;29;20181;-87
2022/08/30 06:50:54;;;;;;;12.30;10.07;;;;;;;;;;16888487;29;20669;-86
2022/08/30 06:59:14;;;;;;;9.23;8.23;;;;;;;;;;16890673;28;20248;-87
2022/08/30 07:07:35;;;;;;;788.10;722.28;;;;;;;;;;16888795;29;20197;-87
2022/08/30 07:15:55;;;;;;;506.35;463.00;;;;;;;;;;16889846;28;20259;-87
2022/08/30 07:24:16;;;;;;;392.17;359.77;;;;;;;;;;16889200;28;20173;-87
2022/08/30 07:32:37;;;;;;;257.38;238.55;;;;;;;;;;16887699;29;20263;-87
2022/08/30 07:41:00;;;;;;;284.55;263.10;;;;;;;;;;16887448;29;20173;-87
2022/08/30 07:49:20;;;;;;;512.95;468.60;;;;;;;;;;16886486;29;20197;-87
2022/08/30 07:57:41;;;;;;;288.55;267.80;;;;;;;;;;16887756;28;20800;-87
2022/08/30 08:06:03;;;;;;;323.08;299.58;;;;;;;;;;16886376;29;20257;-86
2022/08/30 08:14:23;;;;;;;275.92;257.20;;;;;;;;;;16887122;28;20621;-86
2022/08/30 08:22:43;;;;;;;295.77;275.38;;;;;;;;;;16885118;29;20216;-87
2022/08/30 08:31:12;;;;;;;264.35;246.70;;;;;;;;;;16885492;29;20300;-87
2022/08/30 08:39:33;;;;;;;226.70;211.38;;;;;;;;;;16886037;29;20205;-86
2022/08/30 08:47:59;;;;;;;248.73;232.57;;;;;;;;;;16885149;28;20217;-86
2022/08/30 08:56:21;;;;;;;268.10;250.55;;;;;;;;;;16886318;28;20240;-86
2022/08/30 09:04:42;;;;;;;298.42;277.63;;;;;;;;;;16883426;28;20189;-86
2022/08/30 09:13:02;;;;;;;262.45;244.40;;;;;;;;;;16890304;29;20273;-86
2022/08/30 09:21:23;;;;;;;265.45;247.35;;;;;;;;;;16896082;29;20580;-86
2022/08/30 09:30:04;;;;;;;308.80;287.08;;;;;;;;;;16895738;29;20240;-87
2022/08/30 09:38:32;;;;;;;312.95;290.70;;;;;;;;;;16891468;29;20217;-85
2022/08/30 09:46:52;;;;;;;331.48;308.10;;;;;;;;;;16890245;28;20247;-85
2022/08/30 09:55:42;;;;;;;626.58;575.97;;;;;;;;;;16892873;28;20228;-85
2022/08/30 10:04:05;;;;;;;647.35;594.85;;;;;;;;;;16907275;28;20197;-86
2022/08/30 10:12:31;;;;;;;734.22;674.63;;;;;;;;;;16893806;28;20262;-86
2022/08/30 10:21:01;;;;;;;725.88;668.13;;;;;;;;;;16891384;29;20219;-86
2022/08/30 10:29:21;;;;;;;572.50;528.45;;;;;;;;;;16893082;29;20553;-85
2022/08/30 10:37:45;;;;;;;273.40;256.05;;;;;;;;;;16891839;29;20201;-86
2022/08/30 10:46:09;;;;;;;265.52;248.75;;;;;;;;;;16890211;29;20567;-86
2022/08/30 10:54:39;;;;;;;271.67;253.90;;;;;;;;;;16889228;28;20235;-86
2022/08/30 11:02:59;;;;;;;260.00;243.05;;;;;;;;;;16890659;29;20277;-86
2022/08/30 11:11:32;;;;;;;265.05;247.40;;;;;;;;;;16888999;29;20177;-86
2022/08/30 11:19:53;;;;;;;216.32;202.38;;;;;;;;;;16890436;29;20621;-86
2022/08/30 11:28:34;;;;;;;210.82;197.27;;;;;;;;;;16889141;29;20178;-85
2022/08/30 11:36:54;;;;;;;207.60;194.25;;;;;;;;;;16888108;29;20567;-85
2022/08/30 11:45:23;;;;;;;200.55;187.80;;;;;;;;;;16889296;28;20209;-86
2022/08/30 11:53:50;;;;;;;218.30;204.27;;;;;;;;;;16886943;29;20215;-86
2022/08/30 12:02:31;;;;;;;227.40;212.75;;;;;;;;;;16888487;29;20225;-86
2022/08/30 12:10:51;;;;;;;233.75;218.70;;;;;;;;;;16889855;29;20184;-85
2022/08/30 12:19:17;;;;;;;235.50;220.70;;;;;;;;;;16886585;28;20220;-86
2022/08/30 12:27:37;;;;;;;210.23;197.25;;;;;;;;;;16887433;29;20171;-85
2022/08/30 12:35:58;;;;;;;199.50;187.23;;;;;;;;;;16885842;29;20263;-86
2022/08/30 12:44:23;;;;;;;188.48;177.10;;;;;;;;;;16886448;29;20200;-86
2022/08/30 12:52:45;;;;;;;181.88;171.02;;;;;;;;;;16896678;29;20209;-86
2022/08/30 13:01:15;;;;;;;187.07;175.90;;;;;;;;;;16897173;29;20244;-86
2022/08/30 13:09:40;;;;;;;158.75;149.82;;;;;;;;;;16895117;29;20223;-86
2022/08/30 13:18:10;;;;;;;157.75;148.68;;;;;;;;;;16895613;29;20220;-86
2022/08/30 13:26:32;;;;;;;160.15;151.00;;;;;;;;;;16894833;28;20176;-86
2022/08/30 13:34:53;;;;;;;151.30;142.90;;;;;;;;;;16895809;29;20660;-86
2022/08/30 13:43:13;;;;;;;149.80;141.40;;;;;;;;;;16893407;29;20170;-86
2022/08/30 13:51:33;;;;;;;148.35;140.15;;;;;;;;;;16894134;29;20177;-86
2022/08/30 13:59:54;;;;;;;162.57;153.52;;;;;;;;;;16891291;29;20287;-86
2022/08/30 14:08:15;;;;;;;178.95;168.75;;;;;;;;;;16888368;28;20209;-86
2022/08/30 14:16:37;;;;;;;172.85;162.98;;;;;;;;;;16889137;28;20205;-86
2022/08/30 14:25:00;;;;;;;169.50;159.90;;;;;;;;;;16888782;29;20204;-86
2022/08/30 14:33:20;;;;;;;167.23;157.73;;;;;;;;;;16888786;28;20553;-85
2022/08/30 14:41:41;;;;;;;162.05;153.10;;;;;;;;;;16888277;29;20181;-85
2022/08/30 14:50:02;;;;;;;175.55;165.65;;;;;;;;;;16886375;28;20675;-86
2022/08/30 14:58:22;;;;;;;171.35;161.60;;;;;;;;;;16844358;29;1284116;-86
2022/08/30 15:06:44;;;;;;;171.57;161.90;;;;;;;;;;16889619;28;20212;-86
2022/08/30 15:15:05;;;;;;;197.45;186.18;;;;;;;;;;16890119;29;20201;-86
2022/08/30 15:23:25;;;;;;;176.60;166.68;;;;;;;;;;16888659;29;20184;-86
2022/08/30 15:31:46;;;;;;;174.15;164.48;;;;;;;;;;16887935;28;20182;-86
2022/08/30 15:40:07;;;;;;;180.05;170.02;;;;;;;;;;16887770;29;20192;-86
2022/08/30 15:48:27;;;;;;;175.05;165.27;;;;;;;;;;16888189;29;20578;-86
2022/08/30 15:56:48;;;;;;;181.32;171.25;;;;;;;;;;16888055;28;20233;-86
2022/08/30 16:05:08;;;;;;;213.32;201.38;;;;;;;;;;16886505;29;20284;-86
2022/08/30 16:13:28;;;;;;;221.32;208.88;;;;;;;;;;16886084;28;20220;-86
2022/08/30 16:21:49;;;;;;;255.10;238.80;;;;;;;;;;16886768;28;20185;-86
2022/08/30 16:30:10;;;;;;;285.58;267.25;;;;;;;;;;16884800;29;20173;-86
2022/08/30 16:38:31;;;;;;;340.98;318.67;;;;;;;;;;16885405;29;20619;-86
2022/08/30 16:46:51;;;;;;;367.13;343.20;;;;;;;;;;16885590;28;20205;-86
2022/08/30 16:55:12;;;;;;;398.17;371.73;;;;;;;;;;16884298;28;20232;-86
2022/08/30 17:03:32;;;;;;;523.05;485.83;;;;;;;;;;16884565;28;20181;-86
2022/08/30 17:11:52;;;;;;;601.17;558.20;;;;;;;;;;16883522;29;20947;-86
2022/08/30 17:20:14;;;;;;;631.42;586.67;;;;;;;;;;16883460;29;20630;-86
2022/08/30 17:28:34;;;;;;;630.65;585.97;;;;;;;;;;16886876;29;20185;-85
2022/08/30 17:36:57;;;;;;;549.33;510.70;;;;;;;;;;16894834;29;20216;-83
2022/08/30 17:45:17;;;;;;;593.27;551.40;;;;;;;;;;16893310;29;20649;-83
2022/08/30 17:53:37;;;;;;;551.33;512.80;;;;;;;;;;16892949;29;20197;-83
2022/08/30 18:01:58;;;;;;;485.40;452.37;;;;;;;;;;16894484;28;20291;-83
2022/08/30 18:10:18;;;;;;;526.50;490.30;;;;;;;;;;16891852;29;20272;-83
2022/08/30 18:18:39;;;;;;;564.10;524.93;;;;;;;;;;16891744;29;20723;-83
2022/08/30 18:27:03;;;;;;;514.33;479.03;;;;;;;;;;16892294;29;20186;-83
2022/08/30 18:35:24;;;;;;;410.00;383.47;;;;;;;;;;16891685;28;20259;-83
2022/08/30 18:43:44;;;;;;;439.03;409.97;;;;;;;;;;16889334;28;20201;-83
2022/08/30 18:52:06;;;;;;;423.33;395.37;;;;;;;;;;16889951;28;20195;-83
2022/08/30 19:00:27;;;;;;;471.03;439.20;;;;;;;;;;16890185;28;20233;-83
2022/08/30 19:08:47;;;;;;;532.13;495.87;;;;;;;;;;16889444;28;20182;-83
2022/08/30 19:17:07;;;;;;;570.97;531.80;;;;;;;;;;16889905;28;20205;-83
2022/08/30 19:25:28;;;;;;;589.20;548.40;;;;;;;;;;16889588;28;20181;-83
2022/08/30 19:33:48;;;;;;;567.67;528.60;;;;;;;;;;16888910;28;20205;-83
2022/08/30 19:42:08;;;;;;;535.40;498.87;;;;;;;;;;16889524;29;20189;-83
2022/08/30 19:50:29;;;;;;;516.93;481.80;;;;;;;;;;16888198;29;20201;-83
2022/08/30 19:58:49;;;;;;;500.47;466.30;;;;;;;;;;16886814;28;20241;-83
2022/08/30 20:07:10;;;;;;;499.27;465.47;;;;;;;;;;16889392;28;20188;-83
2022/08/30 20:15:30;;;;;;;492.20;459.17;;;;;;;;;;16886027;28;20240;-83
2022/08/30 20:23:50;;;;;;;364.63;342.23;;;;;;;;;;16885693;28;20184;-82
2022/08/30 20:32:11;;;;;;;401.17;375.57;;;;;;;;;;16886195;28;20430;-82
2022/08/30 20:40:35;;;;;;;411.37;384.77;;;;;;;;;;16885943;28;20181;-82
2022/08/30 20:49:00;;;;;;;463.27;432.73;;;;;;;;;;16884653;28;20208;-82
2022/08/30 20:57:20;;;;;;;339.33;318.87;;;;;;;;;;16884909;28;20244;-82
2022/08/30 21:05:40;;;;;;;294.03;277.60;;;;;;;;;;16888460;29;20209;-82
2022/08/30 21:14:01;;;;;;;406.90;381.10;;;;;;;;;;16896169;29;20228;-82
2022/08/30 21:22:22;;;;;;;454.17;424.53;;;;;;;;;;16894924;29;20178;-82
2022/08/30 21:30:42;;;;;;;477.23;445.90;;;;;;;;;;16894393;28;20184;-82
2022/08/30 21:39:04;;;;;;;525.83;490.53;;;;;;;;;;16895045;28;20252;-82
2022/08/30 21:47:24;;;;;;;488.00;455.77;;;;;;;;;;16894450;28;20212;-83
2022/08/30 21:55:44;;;;;;;533.17;497.03;;;;;;;;;;16895172;28;20245;-82
2022/08/30 22:04:06;;;;;;;598.53;557.63;;;;;;;;;;16893593;28;20197;-82
2022/08/30 22:12:26;;;;;;;572.23;533.67;;;;;;;;;;16892105;29;20213;-82
2022/08/30 22:20:47;;;;;;;507.13;474.00;;;;;;;;;;16892585;29;20178;-82
2022/08/30 22:29:08;;;;;;;264.00;249.93;;;;;;;;;;16892329;29;20680;-83
2022/08/30 22:37:30;;;;;;;329.30;310.10;;;;;;;;;;16891955;29;20665;-82
2022/08/30 22:45:50;;;;;;;348.57;328.07;;;;;;;;;;16891447;29;20197;-82
2022/08/30 22:54:11;;;;;;;477.73;446.30;;;;;;;;;;16891090;29;20292;-82
2022/08/30 23:02:32;;;;;;;554.97;518.40;;;;;;;;;;16889724;28;20240;-82
2022/08/30 23:10:52;;;;;;;555.47;518.63;;;;;;;;;;16889323;28;20216;-82
2022/08/30 23:19:13;;;;;;;331.70;311.83;;;;;;;;;;16889995;28;20205;-82
